Time;durP1;ratioP1;P1;durP2;ratioP2;P2;SDS_P1;SDS_P2;PMS_P1;PMS_P2;Temp;Humidity;BMP_temperature;BMP_pressure;BME280_temperature;BME280_humidity;BME280_pressure;Samples;Min_cycle;Max_cycle;Signal;HPM_P1;HPM_P2
2022/04/09 00:00:13;;;;;;;7.28;2.72;;;;;;;;;;4992647;28;20024;-74
2022/04/09 00:02:39;;;;;;;5.38;2.65;;;;;;;;;;4992070;28;20034;-74
2022/04/09 00:05:09;;;;;;;5.95;2.90;;;;;;;;;;4993207;28;20166;-75
2022/04/09 00:07:35;;;;;;;6.00;2.80;;;;;;;;;;4993120;28;20038;-74
2022/04/09 00:10:02;;;;;;;5.38;2.65;;;;;;;;;;4992530;28;20027;-71
2022/04/09 00:12:28;;;;;;;4.07;2.53;;;;;;;;;;4993205;28;20359;-70
2022/04/09 00:14:54;;;;;;;6.95;2.70;;;;;;;;;;4992780;28;20057;-71
2022/04/09 00:17:20;;;;;;;5.43;2.80;;;;;;;;;;4992091;28;20476;-71
2022/04/09 00:19:47;;;;;;;4.35;2.63;;;;;;;;;;4991903;28;20113;-72
2022/04/09 00:22:13;;;;;;;4.88;2.90;;;;;;;;;;4991758;28;20030;-70
2022/04/09 00:24:39;;;;;;;6.38;3.10;;;;;;;;;;4993069;28;20026;-71
2022/04/09 00:27:05;;;;;;;4.75;2.60;;;;;;;;;;5001545;28;20073;-70
2022/04/09 00:29:32;;;;;;;5.00;2.47;;;;;;;;;;4992858;28;20037;-71
2022/04/09 00:31:58;;;;;;;7.63;2.90;;;;;;;;;;4992570;28;20043;-70
2022/04/09 00:34:24;;;;;;;5.80;2.60;;;;;;;;;;4992797;28;20026;-70
2022/04/09 00:36:50;;;;;;;3.97;2.28;;;;;;;;;;4992385;28;20076;-75
2022/04/09 00:39:16;;;;;;;6.43;2.60;;;;;;;;;;4991747;28;20419;-74
2022/04/09 00:41:49;;;;;;;6.40;2.92;;;;;;;;;;4987452;28;20030;-75
2022/04/09 00:44:21;;;;;;;5.63;2.40;;;;;;;;;;4991791;28;20188;-75
2022/04/09 00:46:48;;;;;;;6.15;2.80;;;;;;;;;;4993029;28;20034;-74
2022/04/09 00:49:14;;;;;;;7.05;2.80;;;;;;;;;;4992936;28;20381;-74
2022/04/09 00:51:41;;;;;;;5.57;2.60;;;;;;;;;;4992558;28;20030;-74
2022/04/09 00:54:11;;;;;;;8.48;2.50;;;;;;;;;;4991747;28;20085;-69
2022/04/09 00:56:38;;;;;;;6.60;2.55;;;;;;;;;;4991011;28;20038;-75
2022/04/09 00:59:06;;;;;;;5.22;2.58;;;;;;;;;;4995544;28;20045;-74
2022/04/09 01:01:35;;;;;;;7.32;2.65;;;;;;;;;;4992566;28;20018;-75
2022/04/09 01:04:05;;;;;;;8.18;2.75;;;;;;;;;;4993132;28;20513;-74
2022/04/09 01:06:33;;;;;;;6.45;2.60;;;;;;;;;;4995918;28;20041;-73
2022/04/09 01:08:59;;;;;;;9.65;4.15;;;;;;;;;;4996618;28;20471;-73
2022/04/09 01:11:25;;;;;;;6.53;2.85;;;;;;;;;;4995865;28;20026;-73
2022/04/09 01:13:51;;;;;;;5.05;2.45;;;;;;;;;;4993404;28;20034;-73
2022/04/09 01:16:17;;;;;;;5.30;2.47;;;;;;;;;;4994635;28;20403;-71
2022/04/09 01:18:43;;;;;;;7.70;2.70;;;;;;;;;;4995975;28;20034;-71
2022/04/09 01:21:10;;;;;;;5.45;2.42;;;;;;;;;;4996220;28;20022;-75
2022/04/09 01:23:38;;;;;;;7.45;2.50;;;;;;;;;;4994920;28;20108;-72
2022/04/09 01:26:07;;;;;;;8.63;2.80;;;;;;;;;;4993929;28;20026;-74
2022/04/09 01:28:34;;;;;;;8.60;2.80;;;;;;;;;;4996112;28;20034;-72
2022/04/09 01:31:00;;;;;;;6.15;2.67;;;;;;;;;;4996358;28;20379;-71
2022/04/09 01:33:26;;;;;;;4.80;2.50;;;;;;;;;;4995565;28;20493;-73
2022/04/09 01:35:53;;;;;;;5.78;2.90;;;;;;;;;;4994490;28;20030;-74
2022/04/09 01:38:19;;;;;;;4.68;2.65;;;;;;;;;;4995364;28;20442;-75
2022/04/09 01:40:45;;;;;;;7.40;2.75;;;;;;;;;;4996082;28;20360;-74
2022/04/09 01:43:11;;;;;;;5.60;2.70;;;;;;;;;;4995040;28;20030;-73
2022/04/09 01:45:37;;;;;;;9.00;3.03;;;;;;;;;;4994322;28;20104;-75
2022/04/09 01:48:03;;;;;;;8.15;2.70;;;;;;;;;;4995574;28;20034;-75
2022/04/09 01:50:32;;;;;;;9.75;3.50;;;;;;;;;;4995103;28;20030;-74
2022/04/09 01:52:59;;;;;;;15.32;2.92;;;;;;;;;;4995024;28;20085;-75
2022/04/09 01:55:26;;;;;;;9.15;2.92;;;;;;;;;;4994604;28;20027;-73
2022/04/09 01:57:52;;;;;;;8.45;2.90;;;;;;;;;;4994929;28;20042;-75
2022/04/09 02:00:18;;;;;;;7.60;2.58;;;;;;;;;;4994567;28;20057;-74
2022/04/09 02:02:45;;;;;;;6.65;2.70;;;;;;;;;;4995167;28;20061;-75
2022/04/09 02:05:12;;;;;;;6.10;2.90;;;;;;;;;;4994812;28;20487;-74
2022/04/09 02:07:39;;;;;;;5.40;2.60;;;;;;;;;;4994359;28;20026;-73
2022/04/09 02:10:05;;;;;;;7.43;2.90;;;;;;;;;;4994947;28;20037;-75
2022/04/09 02:12:35;;;;;;;6.07;2.90;;;;;;;;;;4994282;28;20018;-74
2022/04/09 02:15:04;;;;;;;6.10;2.80;;;;;;;;;;4994579;28;20027;-71
2022/04/09 02:17:31;;;;;;;6.90;2.70;;;;;;;;;;4995021;28;20078;-73
2022/04/09 02:19:59;;;;;;;6.15;2.72;;;;;;;;;;4994293;28;20050;-72
2022/04/09 02:22:26;;;;;;;6.50;2.88;;;;;;;;;;4994962;28;20157;-70
2022/04/09 02:24:52;;;;;;;7.85;2.80;;;;;;;;;;4995049;28;20102;-69
2022/04/09 02:27:18;;;;;;;7.97;2.97;;;;;;;;;;4993620;28;20034;-70
2022/04/09 02:29:46;;;;;;;6.28;2.88;;;;;;;;;;4994174;28;20109;-72
2022/04/09 02:32:12;;;;;;;5.68;2.75;;;;;;;;;;4994814;28;20034;-74
2022/04/09 02:34:38;;;;;;;5.00;2.70;;;;;;;;;;4994981;28;20097;-73
2022/04/09 02:37:07;;;;;;;8.32;2.67;;;;;;;;;;4994558;28;20026;-71
2022/04/09 02:39:33;;;;;;;6.03;2.78;;;;;;;;;;4992988;28;20109;-72
2022/04/09 02:41:59;;;;;;;7.75;3.13;;;;;;;;;;4994958;28;20026;-72
2022/04/09 02:44:25;;;;;;;7.97;3.13;;;;;;;;;;4993560;28;20482;-69
2022/04/09 02:46:54;;;;;;;6.18;2.75;;;;;;;;;;4994883;28;20037;-71
2022/04/09 02:49:20;;;;;;;5.85;2.70;;;;;;;;;;4994084;28;20113;-69
2022/04/09 02:51:46;;;;;;;10.10;3.05;;;;;;;;;;4993079;28;20034;-73
2022/04/09 02:54:16;;;;;;;6.78;2.90;;;;;;;;;;4993621;28;20037;-71
2022/04/09 02:56:43;;;;;;;6.93;3.35;;;;;;;;;;4993645;28;20061;-73
2022/04/09 02:59:10;;;;;;;13.18;3.45;;;;;;;;;;5008582;28;20046;-73
2022/04/09 03:01:36;;;;;;;8.35;3.13;;;;;;;;;;4993150;28;20022;-73
2022/04/09 03:04:03;;;;;;;6.93;3.00;;;;;;;;;;4994516;28;20361;-71
2022/04/09 03:06:29;;;;;;;7.40;3.22;;;;;;;;;;4994138;28;20026;-71
2022/04/09 03:08:57;;;;;;;7.63;3.03;;;;;;;;;;4992821;28;20026;-72
2022/04/09 03:11:23;;;;;;;7.80;2.90;;;;;;;;;;4993712;28;20492;-70
2022/04/09 03:13:49;;;;;;;8.45;3.13;;;;;;;;;;4994112;28;20015;-71
2022/04/09 03:16:18;;;;;;;7.40;3.00;;;;;;;;;;4993944;28;20110;-69
2022/04/09 03:18:44;;;;;;;10.07;3.17;;;;;;;;;;4994048;28;20035;-71
2022/04/09 03:21:10;;;;;;;7.75;3.08;;;;;;;;;;4993481;28;20025;-74
2022/04/09 03:23:36;;;;;;;7.93;2.92;;;;;;;;;;4991283;28;20121;-69
2022/04/09 03:26:02;;;;;;;8.18;2.80;;;;;;;;;;4993773;28;20022;-76
2022/04/09 03:28:28;;;;;;;7.18;2.92;;;;;;;;;;4992940;28;20390;-73
2022/04/09 03:30:54;;;;;;;6.07;3.10;;;;;;;;;;4993667;28;20369;-71
2022/04/09 03:33:20;;;;;;;9.10;3.33;;;;;;;;;;4991994;28;20030;-71
2022/04/09 03:35:47;;;;;;;7.18;3.50;;;;;;;;;;4993582;28;20428;-72
2022/04/09 03:38:13;;;;;;;8.70;3.13;;;;;;;;;;4992987;28;20088;-72
2022/04/09 03:40:40;;;;;;;9.40;4.05;;;;;;;;;;4993550;28;20030;-71
2022/04/09 03:43:06;;;;;;;7.60;3.40;;;;;;;;;;4992731;28;20034;-75
2022/04/09 03:45:32;;;;;;;9.65;3.40;;;;;;;;;;4992305;28;20038;-73
2022/04/09 03:47:58;;;;;;;7.82;3.17;;;;;;;;;;4992862;28;20116;-72
2022/04/09 03:50:24;;;;;;;7.63;3.10;;;;;;;;;;4993458;28;20025;-69
2022/04/09 03:52:50;;;;;;;7.65;3.22;;;;;;;;;;4992387;28;20034;-71
2022/04/09 03:55:16;;;;;;;10.68;3.53;;;;;;;;;;4989690;28;20022;-71
2022/04/09 03:57:42;;;;;;;6.65;2.95;;;;;;;;;;4991739;28;20113;-73
2022/04/09 04:00:09;;;;;;;7.88;3.00;;;;;;;;;;4993288;28;20105;-75
2022/04/09 04:02:36;;;;;;;9.75;3.00;;;;;;;;;;4991909;28;20093;-73
2022/04/09 04:05:03;;;;;;;7.97;3.25;;;;;;;;;;4992513;28;20026;-69
2022/04/09 04:07:33;;;;;;;6.85;3.13;;;;;;;;;;4991467;28;20050;-72
2022/04/09 04:10:03;;;;;;;7.40;2.95;;;;;;;;;;4993303;28;20022;-70
2022/04/09 04:12:29;;;;;;;9.05;3.05;;;;;;;;;;4992277;28;20061;-75
2022/04/09 04:14:55;;;;;;;8.95;2.95;;;;;;;;;;4993329;28;20042;-74
2022/04/09 04:17:21;;;;;;;8.43;3.00;;;;;;;;;;4992752;28;20042;-72
2022/04/09 04:19:47;;;;;;;8.35;3.55;;;;;;;;;;4993402;28;20360;-72
2022/04/09 04:22:13;;;;;;;9.63;3.30;;;;;;;;;;4992726;28;20023;-72
2022/04/09 04:24:39;;;;;;;8.18;3.13;;;;;;;;;;4992306;28;20186;-69
2022/04/09 04:27:06;;;;;;;6.55;3.08;;;;;;;;;;4992702;28;20026;-70
2022/04/09 04:29:33;;;;;;;8.40;2.88;;;;;;;;;;4986757;28;20139;-73
2022/04/09 04:31:59;;;;;;;7.38;3.05;;;;;;;;;;4985873;28;20034;-70
2022/04/09 04:34:25;;;;;;;7.57;2.80;;;;;;;;;;4989605;28;20031;-73
2022/04/09 04:36:51;;;;;;;6.32;3.20;;;;;;;;;;4991010;28;20088;-70
2022/04/09 04:39:17;;;;;;;7.03;3.10;;;;;;;;;;4994871;28;20517;-75
2022/04/09 04:41:43;;;;;;;7.78;3.50;;;;;;;;;;4995191;28;20033;-71
2022/04/09 04:44:10;;;;;;;6.40;3.08;;;;;;;;;;4994401;28;20106;-72
2022/04/09 04:46:38;;;;;;;9.45;3.47;;;;;;;;;;4995680;28;20046;-72
2022/04/09 04:49:04;;;;;;;8.00;2.95;;;;;;;;;;4997848;28;20033;-73
2022/04/09 04:51:30;;;;;;;10.45;3.08;;;;;;;;;;4992140;28;20397;-74
2022/04/09 04:53:58;;;;;;;8.07;3.28;;;;;;;;;;4996821;28;20129;-77
2022/04/09 04:56:25;;;;;;;8.27;3.22;;;;;;;;;;4995367;28;20023;-75
2022/04/09 04:58:51;;;;;;;5.57;2.90;;;;;;;;;;4982454;28;20027;-73
2022/04/09 05:01:17;;;;;;;6.95;2.97;;;;;;;;;;4993824;28;20030;-74
2022/04/09 05:03:48;;;;;;;12.73;3.55;;;;;;;;;;4994127;28;20480;-74
2022/04/09 05:06:14;;;;;;;9.57;3.45;;;;;;;;;;4996234;28;20020;-74
2022/04/09 05:08:40;;;;;;;13.48;3.83;;;;;;;;;;4994719;28;20407;-73
2022/04/09 05:11:06;;;;;;;8.90;3.35;;;;;;;;;;4996466;28;20027;-74
2022/04/09 05:13:32;;;;;;;10.63;3.28;;;;;;;;;;4991717;28;20033;-73
2022/04/09 05:15:58;;;;;;;11.60;3.28;;;;;;;;;;4995382;28;20041;-73
2022/04/09 05:18:25;;;;;;;7.45;3.05;;;;;;;;;;4994285;28;20038;-73
2022/04/09 05:20:51;;;;;;;8.52;3.55;;;;;;;;;;4993811;28;20105;-72
2022/04/09 05:23:17;;;;;;;7.13;3.40;;;;;;;;;;4994731;28;20033;-72
2022/04/09 05:25:43;;;;;;;13.10;4.10;;;;;;;;;;4995808;28;20041;-73
2022/04/09 05:28:09;;;;;;;12.32;4.35;;;;;;;;;;4994400;28;20029;-74
2022/04/09 05:30:36;;;;;;;16.90;3.67;;;;;;;;;;4993481;28;20041;-75
2022/04/09 05:33:03;;;;;;;8.80;3.88;;;;;;;;;;4992007;28;20019;-75
2022/04/09 05:35:29;;;;;;;11.93;3.65;;;;;;;;;;4990028;28;20403;-74
2022/04/09 05:37:55;;;;;;;8.43;3.30;;;;;;;;;;4995869;28;20435;-78
2022/04/09 05:40:22;;;;;;;10.40;3.67;;;;;;;;;;4989408;28;20018;-74
2022/04/09 05:42:48;;;;;;;11.55;4.57;;;;;;;;;;4993383;28;20026;-74
2022/04/09 05:45:15;;;;;;;10.65;3.55;;;;;;;;;;4994275;28;20043;-74
2022/04/09 05:47:42;;;;;;;10.38;3.78;;;;;;;;;;4994984;28;20026;-73
2022/04/09 05:50:09;;;;;;;7.53;3.20;;;;;;;;;;4992170;28;20110;-74
2022/04/09 05:52:35;;;;;;;12.57;3.58;;;;;;;;;;4993705;28;20011;-74
2022/04/09 05:55:03;;;;;;;11.15;3.65;;;;;;;;;;4993392;28;20034;-73
2022/04/09 05:57:30;;;;;;;8.90;3.63;;;;;;;;;;4994868;28;20419;-74
2022/04/09 05:59:58;;;;;;;8.65;3.30;;;;;;;;;;4991609;28;20066;-72
2022/04/09 06:02:24;;;;;;;12.63;3.90;;;;;;;;;;4995610;28;20615;-71
2022/04/09 06:04:50;;;;;;;10.20;3.53;;;;;;;;;;4995627;28;20022;-72
2022/04/09 06:07:17;;;;;;;7.40;3.20;;;;;;;;;;4993907;28;20025;-71
2022/04/09 06:09:44;;;;;;;8.15;3.47;;;;;;;;;;4993929;28;20030;-72
2022/04/09 06:12:11;;;;;;;8.23;3.25;;;;;;;;;;4992067;28;20023;-77
2022/04/09 06:14:37;;;;;;;9.40;3.65;;;;;;;;;;4993751;28;20443;-73
2022/04/09 06:17:03;;;;;;;8.50;3.33;;;;;;;;;;4991866;28;20109;-73
2022/04/09 06:19:31;;;;;;;8.60;3.83;;;;;;;;;;4990368;28;20380;-78
2022/04/09 06:21:57;;;;;;;8.23;3.88;;;;;;;;;;4993624;28;20101;-71
2022/04/09 06:24:23;;;;;;;12.65;3.80;;;;;;;;;;4994515;28;20117;-73
2022/04/09 06:26:49;;;;;;;10.93;3.83;;;;;;;;;;4984065;28;20014;-70
2022/04/09 06:29:15;;;;;;;13.32;4.22;;;;;;;;;;4993774;28;20031;-76
2022/04/09 06:31:41;;;;;;;10.52;3.67;;;;;;;;;;4993452;28;20023;-71
2022/04/09 06:34:07;;;;;;;12.82;3.90;;;;;;;;;;4994016;28;20041;-82
2022/04/09 06:36:35;;;;;;;9.40;4.15;;;;;;;;;;4994116;28;20106;-80
2022/04/09 06:39:03;;;;;;;9.60;3.80;;;;;;;;;;4993352;28;20042;-85
2022/04/09 06:41:30;;;;;;;8.27;3.67;;;;;;;;;;4991593;28;20162;-76
2022/04/09 06:43:58;;;;;;;10.27;3.42;;;;;;;;;;4994011;28;20116;-80
2022/04/09 06:46:25;;;;;;;10.40;3.53;;;;;;;;;;4993089;28;20077;-80
2022/04/09 06:48:51;;;;;;;9.00;3.35;;;;;;;;;;4990518;28;20077;-78
2022/04/09 06:51:17;;;;;;;10.32;4.70;;;;;;;;;;4981389;28;20480;-78
2022/04/09 06:53:43;;;;;;;13.55;5.53;;;;;;;;;;4990714;28;20505;-77
2022/04/09 06:56:09;;;;;;;17.90;6.35;;;;;;;;;;4991921;28;20122;-79
2022/04/09 06:58:36;;;;;;;13.25;5.78;;;;;;;;;;4984383;28;20053;-78
2022/04/09 07:01:02;;;;;;;22.33;8.07;;;;;;;;;;4992096;28;20027;-75
2022/04/09 07:03:29;;;;;;;15.23;6.03;;;;;;;;;;4993967;28;20028;-77
2022/04/09 07:05:55;;;;;;;15.25;7.38;;;;;;;;;;4991876;28;20508;-78
2022/04/09 07:08:21;;;;;;;12.35;5.13;;;;;;;;;;4990435;28;20033;-75
2022/04/09 07:10:47;;;;;;;10.23;5.00;;;;;;;;;;4990796;28;20026;-77
2022/04/09 07:13:13;;;;;;;13.80;4.10;;;;;;;;;;4994263;28;20058;-77
2022/04/09 07:15:40;;;;;;;12.63;5.00;;;;;;;;;;4992985;28;20026;-76
2022/04/09 07:18:06;;;;;;;12.27;4.78;;;;;;;;;;4989276;28;20034;-74
2022/04/09 07:20:36;;;;;;;11.48;4.28;;;;;;;;;;4990554;28;20076;-75
2022/04/09 07:23:02;;;;;;;12.80;4.82;;;;;;;;;;4993683;28;20471;-76
2022/04/09 07:25:29;;;;;;;16.33;5.53;;;;;;;;;;4988540;28;20396;-73
2022/04/09 07:27:55;;;;;;;15.55;4.32;;;;;;;;;;4991652;28;20026;-73
2022/04/09 07:30:22;;;;;;;14.43;4.43;;;;;;;;;;4993555;28;20030;-73
2022/04/09 07:32:49;;;;;;;12.30;4.15;;;;;;;;;;4993071;28;20387;-75
2022/04/09 07:35:15;;;;;;;13.60;4.22;;;;;;;;;;4991228;28;20026;-76
2022/04/09 07:37:54;;;;;;;14.20;4.32;;;;;;;;;;4992902;28;20479;-73
2022/04/09 07:40:20;;;;;;;13.55;4.88;;;;;;;;;;4993647;28;20496;-72
2022/04/09 07:42:46;;;;;;;13.23;5.18;;;;;;;;;;4993119;28;20382;-73
2022/04/09 07:45:14;;;;;;;11.32;4.20;;;;;;;;;;4990298;28;20050;-72
2022/04/09 07:47:40;;;;;;;14.60;5.38;;;;;;;;;;4987715;28;20416;-74
2022/04/09 07:50:08;;;;;;;14.90;4.50;;;;;;;;;;4989403;28;20083;-74
2022/04/09 07:52:34;;;;;;;11.45;3.63;;;;;;;;;;4988281;28;20053;-74
2022/04/09 07:55:00;;;;;;;10.07;4.18;;;;;;;;;;4986546;28;20379;-74
2022/04/09 07:57:26;;;;;;;10.82;4.03;;;;;;;;;;4992386;28;20026;-74
2022/04/09 07:59:56;;;;;;;18.60;11.20;;;;;;;;;;4992631;28;20488;-73
2022/04/09 08:02:22;;;;;;;12.02;4.95;;;;;;;;;;4992816;28;20026;-74
2022/04/09 08:04:49;;;;;;;8.48;3.80;;;;;;;;;;4992772;28;20030;-73
2022/04/09 08:07:15;;;;;;;14.85;4.40;;;;;;;;;;4992225;28;20026;-73
2022/04/09 08:09:43;;;;;;;9.45;3.90;;;;;;;;;;4985286;28;20023;-74
2022/04/09 08:12:12;;;;;;;10.82;4.15;;;;;;;;;;4989895;28;20097;-73
2022/04/09 08:14:38;;;;;;;10.38;4.00;;;;;;;;;;4992118;28;20050;-74
2022/04/09 08:17:04;;;;;;;14.10;4.57;;;;;;;;;;4992890;28;20110;-73
2022/04/09 08:19:30;;;;;;;7.93;3.92;;;;;;;;;;4992625;28;20040;-73
2022/04/09 08:21:58;;;;;;;12.38;3.90;;;;;;;;;;4992982;28;20396;-72
2022/04/09 08:24:24;;;;;;;13.32;4.13;;;;;;;;;;4993778;28;20033;-73
2022/04/09 08:26:53;;;;;;;12.95;3.95;;;;;;;;;;4988703;28;20030;-73
2022/04/09 08:29:20;;;;;;;9.25;3.65;;;;;;;;;;4990537;28;20066;-73
2022/04/09 08:31:49;;;;;;;10.43;3.88;;;;;;;;;;4992311;28;20022;-74
2022/04/09 08:34:17;;;;;;;9.43;3.70;;;;;;;;;;4991989;28;20030;-73
2022/04/09 08:36:43;;;;;;;8.50;4.63;;;;;;;;;;4991465;28;20049;-73
2022/04/09 08:39:09;;;;;;;10.93;5.95;;;;;;;;;;4990850;28;20042;-72
2022/04/09 08:41:44;;;;;;;9.40;3.85;;;;;;;;;;4992849;28;20026;-73
2022/04/09 08:44:12;;;;;;;8.85;3.55;;;;;;;;;;4991919;28;20428;-73
2022/04/09 08:46:41;;;;;;;9.57;3.72;;;;;;;;;;4989959;28;20505;-72
2022/04/09 08:49:09;;;;;;;8.13;3.50;;;;;;;;;;4986909;28;20056;-73
2022/04/09 08:51:35;;;;;;;11.05;3.35;;;;;;;;;;4989266;28;20038;-72
2022/04/09 08:54:02;;;;;;;11.18;3.30;;;;;;;;;;4992192;28;20038;-72
2022/04/09 08:56:31;;;;;;;10.77;3.80;;;;;;;;;;4987829;28;20026;-73
2022/04/09 08:59:00;;;;;;;9.00;3.28;;;;;;;;;;4987718;28;20038;-74
2022/04/09 09:01:26;;;;;;;15.68;3.92;;;;;;;;;;4988486;28;20034;-75
2022/04/09 09:03:53;;;;;;;7.25;2.83;;;;;;;;;;4989533;28;20054;-74
2022/04/09 09:06:27;;;;;;;12.88;3.78;;;;;;;;;;4987753;28;20045;-74
2022/04/09 09:08:54;;;;;;;9.52;3.50;;;;;;;;;;4987113;28;20028;-72
2022/04/09 09:11:20;;;;;;;15.68;3.47;;;;;;;;;;4992265;28;20074;-74
2022/04/09 09:13:47;;;;;;;12.85;5.40;;;;;;;;;;4991790;28;20045;-74
2022/04/09 09:16:21;;;;;;;11.43;4.75;;;;;;;;;;4992498;28;20439;-73
2022/04/09 09:18:50;;;;;;;11.07;3.92;;;;;;;;;;4991339;28;20030;-73
2022/04/09 09:21:18;;;;;;;11.30;3.53;;;;;;;;;;4991740;28;20105;-73
2022/04/09 09:23:44;;;;;;;11.82;3.78;;;;;;;;;;4991629;28;20030;-72
2022/04/09 09:26:10;;;;;;;11.20;3.33;;;;;;;;;;4987108;28;20026;-73
2022/04/09 09:28:36;;;;;;;11.43;3.40;;;;;;;;;;4996088;28;20027;-74
2022/04/09 09:31:04;;;;;;;10.15;3.60;;;;;;;;;;4995287;28;20027;-73
2022/04/09 09:33:30;;;;;;;11.27;3.33;;;;;;;;;;4995435;28;20037;-73
2022/04/09 09:36:01;;;;;;;11.02;3.75;;;;;;;;;;4995096;28;20026;-73
2022/04/09 09:38:32;;;;;;;10.13;3.30;;;;;;;;;;4995868;28;20487;-73
2022/04/09 09:40:59;;;;;;;10.70;4.00;;;;;;;;;;4995529;28;20023;-73
2022/04/09 09:43:26;;;;;;;9.13;3.60;;;;;;;;;;4978881;28;20026;-74
2022/04/09 09:45:53;;;;;;;10.98;3.65;;;;;;;;;;4980262;28;20510;-73
2022/04/09 09:48:23;;;;;;;7.97;3.10;;;;;;;;;;4992087;28;20049;-73
2022/04/09 09:50:54;;;;;;;7.15;3.50;;;;;;;;;;4990937;28;20088;-74
2022/04/09 09:53:33;;;;;;;13.45;3.58;;;;;;;;;;4995237;28;20399;-72
2022/04/09 09:55:59;;;;;;;12.10;3.60;;;;;;;;;;4993187;28;20559;-73
2022/04/09 09:58:29;;;;;;;14.23;3.53;;;;;;;;;;4995033;28;20391;-73
2022/04/09 10:00:56;;;;;;;8.02;3.05;;;;;;;;;;4993517;28;20080;-73
2022/04/09 10:03:23;;;;;;;10.48;3.00;;;;;;;;;;4995563;28;20018;-73
2022/04/09 10:05:50;;;;;;;9.63;3.30;;;;;;;;;;5000524;28;20038;-72
2022/04/09 10:08:17;;;;;;;10.45;3.17;;;;;;;;;;4995233;28;20030;-74
2022/04/09 10:10:48;;;;;;;12.90;3.33;;;;;;;;;;4994857;28;20026;-74
2022/04/09 10:13:16;;;;;;;9.48;3.70;;;;;;;;;;4994812;28;20476;-74
2022/04/09 10:15:46;;;;;;;22.65;3.70;;;;;;;;;;4994888;28;20054;-76
2022/04/09 10:18:13;;;;;;;10.60;3.25;;;;;;;;;;4995272;28;20080;-74
2022/04/09 10:20:39;;;;;;;7.47;2.83;;;;;;;;;;4990524;28;20022;-78
2022/04/09 10:23:08;;;;;;;7.78;3.30;;;;;;;;;;4991956;28;20062;-78
2022/04/09 10:25:36;;;;;;;10.70;3.47;;;;;;;;;;5008521;28;20033;-73
2022/04/09 10:28:04;;;;;;;9.32;3.45;;;;;;;;;;4990768;28;20460;-76
2022/04/09 10:30:39;;;;;;;10.65;3.65;;;;;;;;;;4992571;28;20029;-76
2022/04/09 10:33:22;;;;;;;54.97;15.02;;;;;;;;;;4992939;28;20026;-75
2022/04/09 10:35:49;;;;;;;8.25;3.60;;;;;;;;;;4992549;28;20031;-74
2022/04/09 10:38:18;;;;;;;11.48;3.67;;;;;;;;;;4993275;28;20472;-72
2022/04/09 10:40:49;;;;;;;15.32;3.72;;;;;;;;;;4993002;28;20034;-76
2022/04/09 10:43:27;;;;;;;12.32;3.92;;;;;;;;;;5000160;28;20042;-73
2022/04/09 10:46:02;;;;;;;16.35;3.80;;;;;;;;;;4992703;28;20504;-75
2022/04/09 10:48:32;;;;;;;17.05;3.97;;;;;;;;;;4988639;28;20049;-80
2022/04/09 10:51:04;;;;;;;19.92;4.70;;;;;;;;;;4989841;28;20483;-75
2022/04/09 10:53:31;;;;;;;21.42;3.95;;;;;;;;;;4991709;28;20023;-78
2022/04/09 10:56:20;;;;;;;10.30;3.67;;;;;;;;;;4991163;28;20037;-77
2022/04/09 10:59:06;;;;;;;13.35;3.80;;;;;;;;;;4986172;28;20030;-80
2022/04/09 11:01:47;;;;;;;11.15;3.30;;;;;;;;;;4991450;28;20026;-83
2022/04/09 11:07:16;;;;;;;11.85;3.60;;;;;;;;;;4988113;28;20025;-73
2022/04/09 11:09:56;;;;;;;10.35;3.83;;;;;;;;;;4993027;28;20044;-71
2022/04/09 11:12:24;;;;;;;12.38;4.45;;;;;;;;;;4992839;28;20027;-75
2022/04/09 11:14:51;;;;;;;11.90;3.42;;;;;;;;;;4989991;28;20101;-76
2022/04/09 11:17:38;;;;;;;9.98;3.65;;;;;;;;;;4990750;28;20034;-72
2022/04/09 11:20:26;;;;;;;6.90;3.03;;;;;;;;;;4992345;28;20082;-74
2022/04/09 11:22:53;;;;;;;7.68;3.40;;;;;;;;;;4991335;28;20114;-78
2022/04/09 11:25:21;;;;;;;248.38;18.02;;;;;;;;;;4990555;28;20022;-78
2022/04/09 11:27:48;;;;;;;16.52;7.53;;;;;;;;;;4991247;28;20034;-77
2022/04/09 11:30:15;;;;;;;9.63;3.15;;;;;;;;;;5000661;28;20022;-73
2022/04/09 11:32:43;;;;;;;18.52;4.65;;;;;;;;;;4992375;28;20034;-78
2022/04/09 11:35:13;;;;;;;17.10;7.57;;;;;;;;;;4992699;28;20066;-84
2022/04/09 11:37:43;;;;;;;22.67;7.95;;;;;;;;;;4992565;28;20411;-80
2022/04/09 11:40:09;;;;;;;14.82;8.38;;;;;;;;;;4991661;28;20072;-74
2022/04/09 11:42:47;;;;;;;17.55;8.85;;;;;;;;;;4989851;28;20029;-76
2022/04/09 11:45:23;;;;;;;10.65;5.80;;;;;;;;;;4986830;28;20125;-72
2022/04/09 11:47:50;;;;;;;14.23;5.07;;;;;;;;;;4991610;28;20034;-70
2022/04/09 11:50:16;;;;;;;9.40;4.97;;;;;;;;;;4991147;28;20081;-81
2022/04/09 11:52:43;;;;;;;10.45;3.25;;;;;;;;;;4995644;28;20054;-79
2022/04/09 11:55:14;;;;;;;9.82;4.18;;;;;;;;;;4991464;28;20029;-78
2022/04/09 11:57:47;;;;;;;118.50;8.80;;;;;;;;;;4992477;28;20370;-78
2022/04/09 12:00:13;;;;;;;129.05;9.32;;;;;;;;;;4992913;28;20395;-79
2022/04/09 12:02:40;;;;;;;111.65;8.13;;;;;;;;;;4992284;28;20026;-79
2022/04/09 12:05:09;;;;;;;48.60;4.65;;;;;;;;;;4991444;28;20026;-81
2022/04/09 12:07:40;;;;;;;33.42;4.22;;;;;;;;;;4988820;28;20484;-83
2022/04/09 12:10:06;;;;;;;15.10;3.22;;;;;;;;;;4994029;28;20076;-89
2022/04/09 12:12:37;;;;;;;13.77;3.15;;;;;;;;;;4995662;28;20102;-87
2022/04/09 12:15:04;;;;;;;20.75;3.80;;;;;;;;;;4988940;28;20023;-87
2022/04/09 12:17:34;;;;;;;17.05;3.40;;;;;;;;;;4991430;28;20110;-83
2022/04/09 12:20:00;;;;;;;10.55;2.85;;;;;;;;;;4993495;28;20031;-91
2022/04/09 12:22:27;;;;;;;11.02;3.30;;;;;;;;;;4993505;28;20026;-80
2022/04/09 12:24:58;;;;;;;8.73;3.40;;;;;;;;;;4993346;28;20042;-75
2022/04/09 12:27:43;;;;;;;10.02;2.50;;;;;;;;;;4993493;28;20027;-90
2022/04/09 12:30:10;;;;;;;8.40;2.70;;;;;;;;;;4990933;28;20023;-84
2022/04/09 12:32:41;;;;;;;8.63;2.40;;;;;;;;;;4990987;28;20383;-76
2022/04/09 12:35:11;;;;;;;9.65;2.10;;;;;;;;;;4993666;28;20037;-85
2022/04/09 12:37:43;;;;;;;6.07;2.30;;;;;;;;;;4990903;28;20053;-81
2022/04/09 12:40:12;;;;;;;8.80;2.15;;;;;;;;;;4990917;28;20038;-83
2022/04/09 12:42:39;;;;;;;7.55;1.98;;;;;;;;;;4989673;28;20037;-77
2022/04/09 12:45:09;;;;;;;16.83;2.28;;;;;;;;;;4990989;28;20053;-83
2022/04/09 12:47:35;;;;;;;20.05;2.78;;;;;;;;;;4991665;28;20034;-94
2022/04/09 12:50:01;;;;;;;15.55;2.17;;;;;;;;;;4988232;28;20034;-92
2022/04/09 12:52:30;;;;;;;14.52;2.22;;;;;;;;;;4989765;28;20511;-85
2022/04/09 12:54:56;;;;;;;20.08;2.78;;;;;;;;;;4991749;28;20477;-76
2022/04/09 12:57:23;;;;;;;16.30;4.30;;;;;;;;;;4991912;28;20101;-77
2022/04/09 12:59:49;;;;;;;17.67;2.47;;;;;;;;;;4991247;28;20742;-77
2022/04/09 13:02:15;;;;;;;3.10;2.13;;;;;;;;;;4994025;28;20113;-75
2022/04/09 13:04:44;;;;;;;11.88;1.90;;;;;;;;;;4995591;28;20034;-78
2022/04/09 13:07:10;;;;;;;9.48;2.05;;;;;;;;;;4995135;28;20027;-77
2022/04/09 13:09:36;;;;;;;10.48;1.95;;;;;;;;;;4996082;28;20023;-76
2022/04/09 13:12:02;;;;;;;11.07;3.60;;;;;;;;;;4988934;28;20019;-76
2022/04/09 13:14:29;;;;;;;12.60;3.30;;;;;;;;;;4991526;28;20032;-83
2022/04/09 13:16:55;;;;;;;21.67;11.07;;;;;;;;;;4993055;28;20053;-79
2022/04/09 13:19:21;;;;;;;10.05;3.58;;;;;;;;;;4994224;28;20034;-83
2022/04/09 13:21:49;;;;;;;14.43;8.80;;;;;;;;;;4994133;28;20030;-84
2022/04/09 13:24:15;;;;;;;5.80;2.20;;;;;;;;;;4994541;28;20177;-78
2022/04/09 13:26:41;;;;;;;7.70;2.22;;;;;;;;;;4995768;28;20058;-82
2022/04/09 13:29:07;;;;;;;10.70;2.63;;;;;;;;;;4996183;28;20033;-74
2022/04/09 13:31:33;;;;;;;16.13;2.72;;;;;;;;;;4996894;28;20069;-73
2022/04/09 13:34:01;;;;;;;9.15;3.03;;;;;;;;;;4995358;28;20038;-77
2022/04/09 13:36:28;;;;;;;8.05;2.72;;;;;;;;;;4994398;28;20034;-72
2022/04/09 13:38:54;;;;;;;7.65;3.05;;;;;;;;;;4991574;28;20562;-74
2022/04/09 13:41:23;;;;;;;9.48;2.60;;;;;;;;;;4989752;28;20034;-74
2022/04/09 13:43:49;;;;;;;18.75;3.78;;;;;;;;;;4993416;28;20027;-77
2022/04/09 13:46:16;;;;;;;18.23;5.32;;;;;;;;;;4994737;28;20059;-82
2022/04/09 13:48:42;;;;;;;12.48;3.22;;;;;;;;;;4995706;28;20018;-82
2022/04/09 13:51:08;;;;;;;20.05;3.55;;;;;;;;;;4992810;28;20022;-77
2022/04/09 13:53:34;;;;;;;20.70;4.15;;;;;;;;;;4989671;28;20039;-83
2022/04/09 13:56:01;;;;;;;16.80;4.75;;;;;;;;;;4987126;28;20031;-76
2022/04/09 13:58:27;;;;;;;16.52;4.90;;;;;;;;;;4991941;28;20041;-75
2022/04/09 14:00:53;;;;;;;10.20;3.67;;;;;;;;;;5010249;28;20030;-70
2022/04/09 14:03:19;;;;;;;8.82;4.03;;;;;;;;;;5003238;28;20013;-74
2022/04/09 14:05:45;;;;;;;6.18;3.38;;;;;;;;;;5074476;23;20013;-77
2022/04/09 14:08:18;;;;;;;7.50;3.53;;;;;;;;;;5024913;28;20034;-77
2022/04/09 14:11:16;;;;;;;9.40;3.90;;;;;;;;;;5043022;28;20085;-78
2022/04/09 14:13:44;;;;;;;9.95;3.92;;;;;;;;;;5031790;28;20093;-77
2022/04/09 14:16:10;;;;;;;9.15;4.30;;;;;;;;;;5030184;28;20046;-75
2022/04/09 14:18:47;;;;;;;16.30;3.90;;;;;;;;;;5028638;28;20038;-82
2022/04/09 14:21:19;;;;;;;5.82;3.88;;;;;;;;;;5010286;28;20040;-78
2022/04/09 14:24:00;;;;;;;7.05;3.70;;;;;;;;;;5027706;28;20034;-78
2022/04/09 14:26:29;;;;;;;4.30;3.65;;;;;;;;;;5015423;28;20030;-77
2022/04/09 14:28:58;;;;;;;4.60;3.70;;;;;;;;;;5022152;28;20034;-79
2022/04/09 14:31:27;;;;;;;5.63;3.40;;;;;;;;;;5022624;28;20026;-78
2022/04/09 14:33:53;;;;;;;8.23;3.60;;;;;;;;;;5038032;28;20046;-72
2022/04/09 14:36:19;;;;;;;8.60;3.95;;;;;;;;;;5019956;28;20026;-71
2022/04/09 14:38:45;;;;;;;4.97;3.45;;;;;;;;;;5011521;28;20038;-76
2022/04/09 14:41:12;;;;;;;5.25;3.30;;;;;;;;;;5017788;28;20026;-75